createdAt,value
2022-12-08T00:00:24.396Z,17.49
2022-12-08T00:03:09.659Z,17.49
2022-12-08T00:06:02.680Z,17.48
2022-12-08T00:08:48.964Z,17.48
2022-12-08T00:11:19.230Z,17.46
2022-12-08T00:13:48.427Z,17.46
2022-12-08T00:16:17.651Z,17.46
2022-12-08T00:18:47.173Z,17.45
2022-12-08T00:21:17.951Z,17.43
2022-12-08T00:23:46.983Z,17.43
2022-12-08T00:26:15.972Z,17.43
2022-12-08T00:28:44.963Z,17.43
2022-12-08T00:31:13.987Z,17.41
2022-12-08T00:33:43.041Z,17.40
2022-12-08T00:36:14.571Z,17.40
2022-12-08T00:38:47.266Z,17.40
2022-12-08T00:41:19.073Z,17.39
2022-12-08T00:43:48.163Z,17.39
2022-12-08T00:46:17.509Z,17.38
2022-12-08T00:48:46.395Z,17.38
2022-12-08T00:51:15.689Z,17.38
2022-12-08T00:53:46.032Z,17.37
2022-12-08T00:56:15.250Z,17.36
2022-12-08T00:58:44.295Z,17.35
2022-12-08T01:01:13.802Z,17.35
2022-12-08T01:03:43.563Z,17.34
2022-12-08T01:06:12.895Z,17.34
2022-12-08T01:08:42.670Z,17.33
2022-12-08T01:11:15.451Z,17.33
2022-12-08T01:13:44.938Z,17.33
2022-12-08T01:16:23.712Z,17.32
2022-12-08T01:18:53.652Z,17.33
2022-12-08T01:21:23.137Z,17.32
2022-12-08T01:23:52.115Z,17.31
2022-12-08T01:26:23.016Z,17.30
2022-12-08T01:28:52.332Z,17.31
2022-12-08T01:31:23.936Z,17.28
2022-12-08T01:33:53.391Z,17.28
2022-12-08T01:36:24.476Z,17.29
2022-12-08T01:38:54.723Z,17.27
2022-12-08T01:41:27.168Z,17.27
2022-12-08T01:44:04.492Z,17.26
2022-12-08T01:46:35.552Z,17.26
2022-12-08T01:49:09.421Z,17.25
2022-12-08T01:51:44.131Z,17.25
2022-12-08T01:54:14.783Z,17.24
2022-12-08T01:56:51.326Z,17.25
2022-12-08T01:59:20.998Z,17.24
2022-12-08T02:01:53.483Z,17.23
2022-12-08T02:04:22.546Z,17.23
2022-12-08T02:06:52.772Z,17.23
2022-12-08T02:09:22.620Z,17.21
2022-12-08T02:11:54.702Z,17.20
2022-12-08T02:14:25.706Z,17.20
2022-12-08T02:17:02.748Z,17.21
2022-12-08T02:20:09.843Z,17.20
2022-12-08T02:22:49.222Z,17.20
2022-12-08T02:25:25.741Z,17.20
2022-12-08T02:28:09.762Z,17.17
2022-12-08T02:30:51.428Z,17.17
2022-12-08T02:34:10.061Z,17.18
2022-12-08T02:36:49.847Z,17.17
2022-12-08T02:39:36.109Z,17.16
2022-12-08T02:42:11.266Z,17.15
2022-12-08T02:44:46.833Z,17.14
2022-12-08T02:47:19.759Z,17.14
2022-12-08T02:49:49.343Z,17.15
2022-12-08T02:52:42.182Z,17.13
2022-12-08T02:55:21.233Z,17.13
2022-12-08T02:58:13.086Z,17.12
2022-12-08T03:00:57.059Z,17.11
2022-12-08T03:03:33.168Z,17.12
2022-12-08T03:06:09.563Z,17.12
2022-12-08T03:08:56.741Z,17.11
2022-12-08T03:11:35.471Z,17.10
2022-12-08T03:14:08.763Z,17.10
2022-12-08T03:16:42.527Z,17.09
2022-12-08T03:19:20.073Z,17.09
2022-12-08T03:21:52.450Z,17.09
2022-12-08T03:24:24.366Z,17.07
2022-12-08T03:26:57.545Z,17.07
2022-12-08T03:29:27.430Z,17.07
2022-12-08T03:32:04.630Z,17.06
2022-12-08T03:34:34.091Z,17.06
2022-12-08T03:37:03.807Z,17.06
2022-12-08T03:39:34.391Z,17.05
2022-12-08T03:42:03.808Z,17.04
2022-12-08T03:44:32.760Z,17.04
2022-12-08T03:47:02.088Z,17.04
2022-12-08T03:49:31.033Z,17.05
2022-12-08T03:52:00.140Z,17.03
2022-12-08T03:54:29.170Z,17.04
2022-12-08T03:56:59.880Z,17.03
2022-12-08T03:59:28.902Z,17.03
2022-12-08T04:01:57.970Z,17.02
2022-12-08T04:04:27.342Z,17.01
2022-12-08T04:06:56.592Z,17.01
2022-12-08T04:09:25.799Z,17.00
2022-12-08T04:11:55.032Z,17.00
2022-12-08T04:14:25.546Z,17.01
2022-12-08T04:16:54.937Z,17.01
2022-12-08T04:19:23.881Z,17.00
2022-12-08T04:21:53.189Z,16.99
2022-12-08T04:24:22.134Z,16.99
2022-12-08T04:26:51.217Z,16.99
2022-12-08T04:29:20.330Z,17.01
2022-12-08T04:31:51.208Z,17.00
2022-12-08T04:34:20.268Z,17.00
2022-12-08T04:36:49.264Z,16.99
2022-12-08T04:39:18.268Z,16.98
2022-12-08T04:41:47.589Z,16.98
2022-12-08T04:44:16.614Z,16.97
2022-12-08T04:46:45.984Z,16.97
2022-12-08T04:49:16.394Z,16.97
2022-12-08T04:51:45.614Z,16.97
2022-12-08T04:54:14.652Z,16.98
2022-12-08T04:56:43.735Z,16.95
2022-12-08T04:59:12.846Z,16.96
2022-12-08T05:01:41.921Z,16.95
2022-12-08T05:04:11.040Z,16.94
2022-12-08T05:06:41.467Z,16.95
2022-12-08T05:09:11.209Z,16.95
2022-12-08T05:11:48.410Z,16.96
2022-12-08T05:14:18.721Z,16.95
2022-12-08T05:16:48.540Z,16.93
2022-12-08T05:19:18.262Z,16.95
2022-12-08T05:21:49.001Z,16.93
2022-12-08T05:24:18.016Z,16.93
2022-12-08T05:26:47.110Z,16.93
2022-12-08T05:29:16.414Z,16.93
2022-12-08T05:31:45.675Z,16.92
2022-12-08T05:34:14.672Z,16.92
2022-12-08T05:36:44.075Z,16.92
2022-12-08T05:39:15.870Z,16.91
2022-12-08T05:41:45.177Z,16.91
2022-12-08T05:44:14.266Z,16.90
2022-12-08T05:46:43.538Z,16.89
2022-12-08T05:49:12.804Z,16.91
2022-12-08T05:51:42.109Z,16.90
2022-12-08T05:54:11.201Z,16.90
2022-12-08T05:56:42.117Z,16.88
2022-12-08T05:59:11.341Z,16.88
2022-12-08T06:01:40.699Z,16.87
2022-12-08T06:04:10.166Z,16.88
2022-12-08T06:06:39.665Z,16.88
2022-12-08T06:09:09.418Z,16.87
2022-12-08T06:11:39.274Z,16.87
2022-12-08T06:14:12.880Z,16.86
2022-12-08T06:16:42.486Z,16.85
2022-12-08T06:19:11.717Z,16.84
2022-12-08T06:21:41.023Z,16.85
2022-12-08T06:24:10.281Z,16.85
2022-12-08T06:26:41.302Z,16.86
2022-12-08T06:29:11.983Z,16.85
2022-12-08T06:31:41.473Z,16.84
2022-12-08T06:34:10.488Z,16.84
2022-12-08T06:36:39.728Z,16.83
2022-12-08T06:39:08.750Z,16.85
2022-12-08T06:41:58.039Z,16.85
2022-12-08T06:44:28.374Z,16.84
2022-12-08T06:46:57.670Z,16.85
2022-12-08T06:49:26.607Z,16.84
2022-12-08T06:51:56.016Z,16.84
2022-12-08T06:54:24.957Z,16.85
2022-12-08T06:56:54.355Z,16.85
2022-12-08T06:59:26.037Z,16.94
2022-12-08T07:01:57.355Z,16.91
2022-12-08T07:04:26.361Z,16.88
2022-12-08T07:06:55.348Z,16.85
2022-12-08T07:09:24.391Z,16.83
2022-12-08T07:11:53.662Z,16.81
2022-12-08T07:14:24.998Z,16.81
2022-12-08T07:16:55.766Z,16.81
2022-12-08T07:19:25.123Z,16.80
2022-12-08T07:21:54.375Z,16.81
2022-12-08T07:24:23.533Z,16.79
2022-12-08T07:26:52.527Z,16.80
2022-12-08T07:29:26.048Z,16.79
2022-12-08T07:31:57.156Z,16.79
2022-12-08T07:34:26.466Z,16.79
2022-12-08T07:36:55.665Z,16.79
2022-12-08T07:39:26.340Z,16.79
2022-12-08T07:41:55.538Z,16.79
2022-12-08T07:44:24.598Z,16.81
2022-12-08T07:46:53.571Z,16.80
2022-12-08T07:49:24.279Z,16.79
2022-12-08T07:51:53.604Z,16.80
2022-12-08T07:54:22.576Z,16.80
2022-12-08T07:56:52.000Z,16.80
2022-12-08T07:59:21.416Z,16.81
2022-12-08T08:02:11.720Z,16.81
2022-12-08T08:04:41.834Z,16.82
2022-12-08T08:07:11.323Z,16.82
2022-12-08T08:09:40.323Z,16.82
2022-12-08T08:12:30.186Z,16.81
2022-12-08T08:14:59.787Z,16.83
2022-12-08T08:17:29.798Z,16.83
2022-12-08T08:20:02.251Z,16.85
2022-12-08T08:22:32.736Z,16.85
2022-12-08T08:25:01.771Z,16.85
2022-12-08T08:27:32.869Z,16.86
2022-12-08T08:30:02.609Z,16.88
2022-12-08T08:32:36.276Z,16.88
2022-12-08T08:35:08.008Z,16.88
2022-12-08T08:37:37.539Z,16.88
2022-12-08T08:40:08.519Z,16.88
2022-12-08T08:42:38.359Z,16.88
2022-12-08T08:45:08.088Z,16.88
2022-12-08T08:47:38.496Z,16.89
2022-12-08T08:50:09.811Z,16.88
2022-12-08T08:52:39.620Z,16.87
2022-12-08T08:55:09.112Z,16.88
2022-12-08T08:57:38.484Z,16.88
2022-12-08T09:00:10.229Z,16.86
2022-12-08T09:02:40.622Z,16.87
2022-12-08T09:05:11.607Z,16.87
2022-12-08T09:07:40.939Z,16.87
2022-12-08T09:10:11.003Z,16.85
2022-12-08T09:12:40.351Z,16.86
2022-12-08T09:15:10.084Z,16.86
2022-12-08T09:17:40.526Z,16.85
2022-12-08T09:20:11.547Z,16.86
2022-12-08T09:22:40.995Z,16.87
2022-12-08T09:25:10.806Z,16.86
2022-12-08T09:27:40.174Z,16.87
2022-12-08T09:30:10.314Z,16.86
2022-12-08T09:32:39.985Z,16.87
2022-12-08T09:35:10.815Z,16.87
2022-12-08T09:37:40.037Z,16.88
2022-12-08T09:40:12.634Z,16.88
2022-12-08T09:42:52.080Z,16.88
2022-12-08T09:45:21.942Z,16.89
2022-12-08T09:48:02.540Z,16.89
2022-12-08T09:50:39.149Z,16.90
2022-12-08T09:53:14.930Z,16.90
2022-12-08T09:55:49.276Z,16.90
2022-12-08T09:58:28.820Z,16.90
2022-12-08T10:00:58.386Z,16.90
2022-12-08T10:03:30.746Z,16.91
2022-12-08T10:06:09.381Z,16.91
2022-12-08T10:08:45.373Z,16.92
2022-12-08T10:11:21.220Z,16.92
2022-12-08T10:13:57.655Z,16.92
2022-12-08T10:16:34.659Z,16.94
2022-12-08T10:19:14.688Z,16.93
2022-12-08T10:22:44.531Z,16.93
2022-12-08T10:26:28.009Z,16.94
2022-12-08T10:30:10.798Z,16.95
2022-12-08T10:33:53.685Z,16.95
2022-12-08T10:37:36.035Z,16.95
2022-12-08T10:41:18.877Z,16.95
2022-12-08T10:45:01.374Z,16.96
2022-12-08T10:48:44.258Z,16.97
2022-12-08T10:52:26.620Z,16.98
2022-12-08T10:56:09.744Z,16.98
2022-12-08T10:59:51.976Z,16.99
2022-12-08T11:03:35.049Z,17.00
2022-12-08T11:07:17.443Z,17.01
2022-12-08T11:11:00.306Z,17.02
2022-12-08T11:14:43.054Z,17.01
2022-12-08T11:18:25.892Z,17.02
2022-12-08T11:22:08.290Z,17.04
2022-12-08T11:25:51.182Z,17.03
2022-12-08T11:29:33.577Z,17.04
2022-12-08T11:33:16.149Z,17.05
2022-12-08T11:36:58.436Z,17.05
2022-12-08T11:40:41.253Z,17.06
2022-12-08T11:44:23.904Z,17.07
2022-12-08T11:48:06.633Z,17.06
2022-12-08T11:51:48.909Z,17.07
2022-12-08T11:55:36.973Z,17.08
2022-12-08T11:59:21.988Z,17.09
2022-12-08T12:03:04.612Z,17.09
2022-12-08T12:06:54.602Z,17.10
2022-12-08T12:10:38.175Z,17.11
2022-12-08T12:14:21.050Z,17.12
2022-12-08T12:18:04.008Z,17.12
2022-12-08T12:20:57.792Z,17.13
2022-12-08T12:23:37.762Z,17.13
2022-12-08T12:26:08.850Z,17.14
2022-12-08T12:28:44.416Z,17.14
2022-12-08T12:31:16.518Z,17.16
2022-12-08T12:33:48.073Z,17.16
2022-12-08T12:36:19.295Z,17.17
2022-12-08T12:39:04.283Z,17.18
2022-12-08T12:41:44.055Z,17.18
2022-12-08T12:44:41.290Z,17.20
2022-12-08T12:47:35.077Z,17.20
2022-12-08T12:50:09.922Z,17.21
2022-12-08T12:52:48.690Z,17.20
2022-12-08T12:55:55.172Z,17.22
2022-12-08T12:58:43.500Z,17.21
2022-12-08T13:01:55.698Z,17.24
2022-12-08T13:04:34.112Z,17.25
2022-12-08T13:07:04.284Z,17.25
2022-12-08T13:09:39.280Z,17.26
2022-12-08T13:12:19.892Z,17.26
2022-12-08T13:14:51.784Z,17.27
2022-12-08T13:17:28.405Z,17.28
2022-12-08T13:19:59.782Z,17.27
2022-12-08T13:22:50.379Z,17.27
2022-12-08T13:25:51.207Z,17.28
2022-12-08T13:28:24.746Z,17.29
2022-12-08T13:30:55.478Z,17.30
2022-12-08T13:33:31.877Z,17.29
2022-12-08T13:36:15.807Z,17.30
2022-12-08T13:38:48.286Z,17.31
2022-12-08T13:41:23.749Z,17.31
2022-12-08T13:47:35.301Z,17.33
2022-12-08T13:56:43.415Z,17.33
2022-12-08T13:59:23.733Z,17.34
2022-12-08T14:03:05.932Z,17.34
2022-12-08T14:06:48.886Z,17.35
2022-12-08T14:10:31.608Z,17.34
2022-12-08T14:14:16.528Z,17.35
2022-12-08T14:18:01.726Z,17.35
2022-12-08T14:21:45.066Z,17.35
2022-12-08T14:25:27.493Z,17.36
2022-12-08T14:29:10.504Z,17.36
2022-12-08T14:32:52.841Z,17.35
2022-12-08T14:36:35.418Z,17.36
2022-12-08T14:40:22.791Z,17.36
2022-12-08T14:43:48.569Z,17.36
2022-12-08T14:47:31.339Z,17.37
2022-12-08T14:51:14.102Z,17.37
2022-12-08T14:54:56.477Z,17.37
2022-12-08T14:58:39.279Z,17.38
2022-12-08T15:02:21.605Z,17.30
2022-12-08T15:06:04.382Z,17.29
2022-12-08T15:09:46.637Z,17.33
2022-12-08T15:13:29.697Z,17.39
2022-12-08T15:17:12.017Z,17.42
2022-12-08T15:20:54.862Z,17.44
2022-12-08T15:24:37.291Z,17.52
2022-12-08T15:28:21.267Z,17.57
2022-12-08T15:32:05.484Z,17.60
2022-12-08T15:35:48.473Z,17.61
2022-12-08T15:39:30.799Z,17.64
2022-12-08T15:43:13.873Z,17.66
2022-12-08T15:46:51.097Z,17.68
2022-12-08T15:49:24.369Z,17.68
2022-12-08T15:52:00.734Z,17.69
2022-12-08T15:54:40.302Z,17.70
2022-12-08T15:57:25.031Z,17.70
2022-12-08T16:00:15.383Z,17.72
2022-12-08T16:03:22.568Z,17.73
2022-12-08T16:06:09.877Z,17.74
2022-12-08T16:08:56.137Z,17.74
2022-12-08T16:12:05.276Z,17.75
2022-12-08T16:17:19.835Z,17.77
2022-12-08T16:19:48.861Z,17.78
2022-12-08T16:25:21.671Z,17.77
2022-12-08T16:28:08.289Z,17.77
2022-12-08T16:30:41.964Z,17.78
2022-12-08T16:33:12.770Z,17.79
2022-12-08T16:42:32.428Z,5.60
2022-12-08T16:45:05.406Z,4.47
2022-12-08T16:47:37.018Z,3.82
2022-12-08T16:50:12.786Z,3.26
2022-12-08T16:52:41.828Z,2.84
2022-12-08T16:55:12.811Z,2.52
2022-12-08T16:57:45.003Z,2.33
2022-12-08T17:00:19.998Z,2.17
2022-12-08T17:02:50.120Z,1.99
2022-12-08T17:05:22.092Z,1.90
2022-12-08T17:07:53.058Z,1.86
2022-12-08T17:10:25.271Z,1.81
2022-12-08T17:12:56.250Z,1.76
2022-12-08T17:15:27.360Z,1.76
2022-12-08T17:17:56.533Z,1.70
2022-12-08T17:20:27.830Z,1.71
2022-12-08T17:22:57.778Z,1.68
2022-12-08T17:25:27.930Z,1.65
2022-12-08T17:27:58.387Z,1.67
2022-12-08T17:30:28.074Z,1.69
2022-12-08T17:32:57.007Z,1.68
2022-12-08T17:35:26.380Z,1.70
2022-12-08T17:37:55.343Z,1.69
2022-12-08T17:40:28.140Z,1.67
2022-12-08T17:42:58.960Z,1.68
2022-12-08T17:45:28.418Z,1.71
2022-12-08T17:47:57.403Z,1.75
2022-12-08T17:50:26.762Z,1.71
2022-12-08T17:52:55.763Z,1.76
2022-12-08T17:55:25.111Z,1.71
2022-12-08T17:57:54.053Z,1.70
2022-12-08T18:00:25.056Z,1.76
2022-12-08T18:02:54.192Z,1.77
2022-12-08T18:05:23.856Z,1.77
2022-12-08T18:07:53.465Z,1.78
2022-12-08T18:10:22.665Z,1.79
2022-12-08T18:12:51.729Z,1.78
2022-12-08T18:15:21.625Z,1.78
2022-12-08T18:17:52.277Z,1.78
2022-12-08T18:20:22.256Z,1.71
2022-12-08T18:22:51.598Z,1.73
2022-12-08T18:25:23.289Z,1.72
2022-12-08T18:27:53.035Z,1.71
2022-12-08T18:30:22.768Z,1.68
2022-12-08T18:32:57.303Z,1.69
2022-12-08T18:35:28.785Z,1.68
2022-12-08T18:37:58.422Z,1.65
2022-12-08T18:40:27.772Z,1.65
2022-12-08T18:42:57.810Z,1.64
2022-12-08T18:45:27.270Z,1.66
2022-12-08T18:47:57.670Z,1.63
2022-12-08T18:50:27.032Z,1.62
2022-12-08T18:52:56.247Z,1.62
2022-12-08T18:55:25.630Z,1.61
2022-12-08T18:57:54.637Z,1.61
2022-12-08T19:00:24.130Z,1.58
2022-12-08T19:02:53.125Z,1.59
2022-12-08T19:05:24.800Z,1.61
2022-12-08T19:07:54.007Z,1.61
2022-12-08T19:10:23.271Z,1.57
2022-12-08T19:12:52.986Z,1.56
2022-12-08T19:15:22.255Z,1.54
2022-12-08T19:17:51.171Z,1.54
2022-12-08T19:20:22.099Z,1.52
2022-12-08T19:22:51.602Z,1.53
2022-12-08T19:25:21.687Z,1.51
2022-12-08T19:27:53.139Z,1.49
2022-12-08T19:30:22.801Z,1.52
2022-12-08T19:32:52.159Z,1.53
2022-12-08T19:35:22.774Z,1.53
2022-12-08T19:37:53.729Z,1.54
2022-12-08T19:40:55.495Z,1.55
2022-12-08T19:43:38.383Z,1.54
2022-12-08T19:46:08.426Z,1.54
2022-12-08T19:48:37.501Z,1.53
2022-12-08T19:51:08.218Z,1.51
2022-12-08T19:53:37.668Z,1.56
2022-12-08T19:56:07.499Z,1.47
2022-12-08T19:58:36.551Z,1.48
2022-12-08T20:01:06.082Z,1.47
2022-12-08T20:03:35.274Z,1.43
2022-12-08T20:06:04.678Z,1.41
2022-12-08T20:08:35.086Z,1.37
2022-12-08T20:11:04.405Z,1.25
2022-12-08T20:13:43.839Z,1.11
2022-12-08T20:16:13.786Z,1.16
2022-12-08T20:18:44.272Z,1.11
2022-12-08T20:21:14.366Z,1.04
2022-12-08T20:23:45.608Z,0.99
2022-12-08T20:26:15.404Z,0.81
2022-12-08T20:28:44.537Z,0.68
2022-12-08T20:31:20.020Z,0.64
2022-12-08T20:33:50.087Z,0.56
2022-12-08T20:36:21.751Z,0.53
2022-12-08T20:38:53.914Z,0.39
2022-12-08T20:41:24.580Z,0.41
2022-12-08T20:43:54.273Z,0.40
2022-12-08T20:46:23.598Z,0.30
2022-12-08T20:48:52.773Z,0.39
2022-12-08T20:51:25.674Z,0.27
2022-12-08T20:53:59.562Z,0.27
2022-12-08T20:56:31.339Z,0.27
2022-12-08T20:59:00.818Z,0.26
2022-12-08T21:01:30.302Z,0.24
2022-12-08T21:03:59.770Z,0.20
2022-12-08T21:06:29.123Z,0.34
2022-12-08T21:08:59.700Z,0.32
2022-12-08T21:11:29.488Z,0.34
2022-12-08T21:13:58.514Z,0.36
2022-12-08T21:16:27.888Z,0.40
2022-12-08T21:18:57.092Z,0.42
2022-12-08T21:21:26.521Z,0.42
2022-12-08T21:23:55.870Z,0.41
2022-12-08T21:26:26.961Z,0.49
2022-12-08T21:28:58.527Z,0.50
2022-12-08T21:31:29.389Z,0.48
2022-12-08T21:33:59.144Z,0.48
2022-12-08T21:36:28.958Z,0.51
2022-12-08T21:39:01.121Z,0.51
2022-12-08T21:42:01.293Z,0.51
2022-12-08T21:44:30.456Z,0.54
2022-12-08T21:46:59.963Z,0.52
2022-12-08T21:49:29.488Z,0.56
2022-12-08T21:51:59.171Z,0.62
2022-12-08T21:54:28.710Z,0.63
2022-12-08T21:56:59.715Z,0.64
2022-12-08T21:59:28.834Z,0.65
2022-12-08T22:01:58.140Z,0.65
2022-12-08T22:04:27.530Z,0.68
2022-12-08T22:06:57.101Z,0.65
2022-12-08T22:09:26.305Z,0.68
2022-12-08T22:11:56.406Z,0.67
2022-12-08T22:14:27.010Z,0.69
2022-12-08T22:16:56.429Z,0.69
2022-12-08T22:19:25.677Z,0.59
2022-12-08T22:21:55.102Z,0.59
2022-12-08T22:24:24.232Z,0.59
2022-12-08T22:26:53.662Z,0.51
2022-12-08T22:29:23.045Z,0.43
2022-12-08T22:31:53.726Z,0.40
2022-12-08T22:34:22.874Z,0.35
2022-12-08T22:36:52.358Z,0.33
2022-12-08T22:39:21.454Z,0.31
2022-12-08T22:41:50.708Z,0.27
2022-12-08T22:44:20.135Z,0.22
2022-12-08T22:46:49.560Z,0.11
2022-12-08T22:49:20.073Z,-0.07
2022-12-08T22:51:49.475Z,-0.09
2022-12-08T22:54:18.699Z,-0.10
2022-12-08T22:56:48.217Z,-0.12
2022-12-08T22:59:17.509Z,-0.15
2022-12-08T23:01:46.818Z,-0.21
2022-12-08T23:04:18.042Z,-0.21
2022-12-08T23:06:49.332Z,-0.32
2022-12-08T23:09:18.747Z,-0.44
2022-12-08T23:11:48.050Z,-0.45
2022-12-08T23:14:17.263Z,-0.45
2022-12-08T23:16:46.656Z,-0.52
2022-12-08T23:19:15.898Z,-0.52
2022-12-08T23:21:45.236Z,-0.58
2022-12-08T23:24:15.893Z,-0.58
2022-12-08T23:26:45.454Z,-0.68
2022-12-08T23:29:14.844Z,-0.66
2022-12-08T23:31:44.231Z,-0.61
2022-12-08T23:34:13.404Z,-0.67
2022-12-08T23:36:42.873Z,-0.78
2022-12-08T23:39:14.225Z,-0.84
2022-12-08T23:41:43.721Z,-0.82
2022-12-08T23:44:13.083Z,-0.93
2022-12-08T23:46:42.398Z,-0.98
2022-12-08T23:49:11.926Z,-1.00
2022-12-08T23:51:41.429Z,-1.01
2022-12-08T23:54:10.667Z,-0.95
2022-12-08T23:56:41.317Z,-1.01
2022-12-08T23:59:11.192Z,-1.00
